sensor_id;sensor_type;location;lat;lon;timestamp;pressure;altitude;pressure_sealevel;temperature;humidity
44138;BME280;29800;55.942;37.314;2022-12-18T00:00:59;99063.41;;;-3.11;70.91
44138;BME280;29800;55.942;37.314;2022-12-18T00:03:25;99044.31;;;-3.08;70.49
44138;BME280;29800;55.942;37.314;2022-12-18T00:05:52;99032.41;;;-3.05;70.92
44138;BME280;29800;55.942;37.314;2022-12-18T00:08:18;99035.06;;;-3.05;70.53
44138;BME280;29800;55.942;37.314;2022-12-18T00:10:45;99026.09;;;-3.12;70.49
44138;BME280;29800;55.942;37.314;2022-12-18T00:13:11;99024.50;;;-3.22;70.68
44138;BME280;29800;55.942;37.314;2022-12-18T00:15:39;99023.19;;;-3.26;70.48
44138;BME280;29800;55.942;37.314;2022-12-18T00:18:06;99016.28;;;-3.20;71.61
44138;BME280;29800;55.942;37.314;2022-12-18T00:20:38;99016.75;;;-3.17;70.94
44138;BME280;29800;55.942;37.314;2022-12-18T00:23:06;99006.53;;;-3.13;70.94
44138;BME280;29800;55.942;37.314;2022-12-18T00:25:33;99009.41;;;-3.15;70.59
44138;BME280;29800;55.942;37.314;2022-12-18T00:28:01;99006.09;;;-3.25;70.63
44138;BME280;29800;55.942;37.314;2022-12-18T00:30:27;99002.59;;;-3.25;71.09
44138;BME280;29800;55.942;37.314;2022-12-18T00:32:54;98997.06;;;-3.24;71.01
44138;BME280;29800;55.942;37.314;2022-12-18T00:35:20;98995.28;;;-3.32;71.29
44138;BME280;29800;55.942;37.314;2022-12-18T00:37:46;99000.50;;;-3.38;71.40
44138;BME280;29800;55.942;37.314;2022-12-18T00:40:12;98995.16;;;-3.38;71.20
44138;BME280;29800;55.942;37.314;2022-12-18T00:42:39;98988.16;;;-3.39;71.54
44138;BME280;29800;55.942;37.314;2022-12-18T00:45:29;98980.59;;;-3.36;71.59
44138;BME280;29800;55.942;37.314;2022-12-18T00:47:56;98975.38;;;-3.29;71.15
44138;BME280;29800;55.942;37.314;2022-12-18T00:50:24;98979.72;;;-3.28;70.94
44138;BME280;29800;55.942;37.314;2022-12-18T00:52:50;98974.38;;;-3.28;71.42
44138;BME280;29800;55.942;37.314;2022-12-18T00:55:17;98972.03;;;-3.31;70.90
44138;BME280;29800;55.942;37.314;2022-12-18T00:57:43;98971.19;;;-3.32;71.03
44138;BME280;29800;55.942;37.314;2022-12-18T01:00:14;98967.69;;;-3.32;70.54
44138;BME280;29800;55.942;37.314;2022-12-18T01:02:42;98968.75;;;-3.41;70.98
44138;BME280;29800;55.942;37.314;2022-12-18T01:05:10;98961.75;;;-3.42;70.61
44138;BME280;29800;55.942;37.314;2022-12-18T01:07:36;98968.47;;;-3.46;70.73
44138;BME280;29800;55.942;37.314;2022-12-18T01:10:04;98959.78;;;-3.48;71.06
44138;BME280;29800;55.942;37.314;2022-12-18T01:12:30;98953.06;;;-3.44;71.00
44138;BME280;29800;55.942;37.314;2022-12-18T01:14:57;98950.03;;;-3.41;70.59
44138;BME280;29800;55.942;37.314;2022-12-18T01:17:23;98944.50;;;-3.40;70.94
44138;BME280;29800;55.942;37.314;2022-12-18T01:19:49;98941.25;;;-3.50;70.86
44138;BME280;29800;55.942;37.314;2022-12-18T01:22:15;98945.09;;;-3.53;71.09
44138;BME280;29800;55.942;37.314;2022-12-18T01:24:41;98941.94;;;-3.56;71.34
44138;BME280;29800;55.942;37.314;2022-12-18T01:27:07;98935.59;;;-3.55;71.33
44138;BME280;29800;55.942;37.314;2022-12-18T01:29:33;98945.47;;;-3.56;70.92
44138;BME280;29800;55.942;37.314;2022-12-18T01:31:59;98945.81;;;-3.59;71.02
44138;BME280;29800;55.942;37.314;2022-12-18T01:34:25;98943.78;;;-3.57;71.26
44138;BME280;29800;55.942;37.314;2022-12-18T01:36:51;98935.78;;;-3.57;71.34
44138;BME280;29800;55.942;37.314;2022-12-18T01:39:18;98936.06;;;-3.52;70.85
44138;BME280;29800;55.942;37.314;2022-12-18T01:41:45;98934.03;;;-3.49;70.55
44138;BME280;29800;55.942;37.314;2022-12-18T01:44:55;98933.31;;;-3.43;70.86
44138;BME280;29800;55.942;37.314;2022-12-18T01:49:54;98923.31;;;-3.49;70.35
44138;BME280;29800;55.942;37.314;2022-12-18T01:52:21;98929.81;;;-3.44;70.23
44138;BME280;29800;55.942;37.314;2022-12-18T01:54:50;98931.66;;;-3.44;70.37
44138;BME280;29800;55.942;37.314;2022-12-18T01:57:18;98936.19;;;-3.45;69.99
44138;BME280;29800;55.942;37.314;2022-12-18T01:59:49;98928.31;;;-3.46;70.27
44138;BME280;29800;55.942;37.314;2022-12-18T02:02:16;98927.16;;;-3.44;70.13
44138;BME280;29800;55.942;37.314;2022-12-18T02:04:43;98931.28;;;-3.41;69.96
44138;BME280;29800;55.942;37.314;2022-12-18T02:09:46;98937.50;;;-3.41;69.76
44138;BME280;29800;55.942;37.314;2022-12-18T02:12:28;98931.28;;;-3.41;70.26
44138;BME280;29800;55.942;37.314;2022-12-18T02:15:03;98932.56;;;-3.52;70.30
44138;BME280;29800;55.942;37.314;2022-12-18T02:17:35;98929.88;;;-3.29;70.17
44138;BME280;29800;55.942;37.314;2022-12-18T02:20:20;98924.28;;;-3.42;70.06
44138;BME280;29800;55.942;37.314;2022-12-18T02:28:27;98940.16;;;-3.41;69.77
44138;BME280;29800;55.942;37.314;2022-12-18T02:31:01;98941.47;;;-3.37;70.04
44138;BME280;29800;55.942;37.314;2022-12-18T02:33:30;98939.25;;;-3.33;69.69
44138;BME280;29800;55.942;37.314;2022-12-18T02:35:57;98932.25;;;-3.34;69.36
44138;BME280;29800;55.942;37.314;2022-12-18T02:38:26;98926.72;;;-3.33;69.42
44138;BME280;29800;55.942;37.314;2022-12-18T02:40:56;98926.91;;;-3.34;69.42
44138;BME280;29800;55.942;37.314;2022-12-18T02:43:23;98935.28;;;-3.37;68.87
44138;BME280;29800;55.942;37.314;2022-12-18T02:45:59;98934.63;;;-3.39;68.97
44138;BME280;29800;55.942;37.314;2022-12-18T02:48:32;98926.06;;;-3.35;70.03
44138;BME280;29800;55.942;37.314;2022-12-18T02:53:45;98938.66;;;-3.43;68.89
44138;BME280;29800;55.942;37.314;2022-12-18T02:56:20;98932.16;;;-3.41;69.34
44138;BME280;29800;55.942;37.314;2022-12-18T02:58:58;98935.19;;;-3.44;68.96
44138;BME280;29800;55.942;37.314;2022-12-18T03:01:41;98935.72;;;-3.48;68.90
44138;BME280;29800;55.942;37.314;2022-12-18T03:04:24;98935.72;;;-3.48;68.75
44138;BME280;29800;55.942;37.314;2022-12-18T03:06:55;98945.94;;;-3.52;68.59
44138;BME280;29800;55.942;37.314;2022-12-18T03:09:31;98945.47;;;-3.56;69.12
44138;BME280;29800;55.942;37.314;2022-12-18T03:12:07;98939.09;;;-3.55;69.16
44138;BME280;29800;55.942;37.314;2022-12-18T03:17:46;98931.41;;;-3.58;69.04
44138;BME280;29800;55.942;37.314;2022-12-18T03:20:19;98925.59;;;-3.61;68.86
44138;BME280;29800;55.942;37.314;2022-12-18T03:22:51;98938.69;;;-3.66;68.81
44138;BME280;29800;55.942;37.314;2022-12-18T03:25:19;98926.13;;;-3.66;68.65
44138;BME280;29800;55.942;37.314;2022-12-18T03:27:50;98925.72;;;-3.55;68.68
44138;BME280;29800;55.942;37.314;2022-12-18T03:30:20;98912.75;;;-3.43;69.51
44138;BME280;29800;55.942;37.314;2022-12-18T03:33:15;98917.94;;;-3.26;68.14
44138;BME280;29800;55.942;37.314;2022-12-18T03:35:43;98925.66;;;-3.46;68.18
44138;BME280;29800;55.942;37.314;2022-12-18T03:38:11;98932.63;;;-3.60;68.55
44138;BME280;29800;55.942;37.314;2022-12-18T03:41:15;98927.09;;;-3.59;68.87
44138;BME280;29800;55.942;37.314;2022-12-18T03:44:13;98932.63;;;-3.60;68.63
44138;BME280;29800;55.942;37.314;2022-12-18T03:46:55;98927.16;;;-3.67;69.65
44138;BME280;29800;55.942;37.314;2022-12-18T03:49:46;98928.81;;;-3.66;71.31
44138;BME280;29800;55.942;37.314;2022-12-18T03:55:09;98944.38;;;-3.70;69.59
44138;BME280;29800;55.942;37.314;2022-12-18T03:57:38;98921.31;;;-3.71;69.78
44138;BME280;29800;55.942;37.314;2022-12-18T04:00:10;98910.59;;;-3.71;69.13
44138;BME280;29800;55.942;37.314;2022-12-18T04:02:53;98922.41;;;-3.80;69.09
44138;BME280;29800;55.942;37.314;2022-12-18T04:05:26;98919.59;;;-3.86;69.86
44138;BME280;29800;55.942;37.314;2022-12-18T04:07:55;98928.63;;;-3.88;69.69
44138;BME280;29800;55.942;37.314;2022-12-18T04:10:22;98930.94;;;-3.84;69.35
44138;BME280;29800;55.942;37.314;2022-12-18T04:12:48;98935.59;;;-3.78;70.12
44138;BME280;29800;55.942;37.314;2022-12-18T04:15:15;98931.25;;;-3.79;69.58
44138;BME280;29800;55.942;37.314;2022-12-18T04:17:49;98941.59;;;-3.76;68.99
44138;BME280;29800;55.942;37.314;2022-12-18T04:20:18;98949.72;;;-3.70;69.94
44138;BME280;29800;55.942;37.314;2022-12-18T04:22:45;98951.75;;;-3.72;68.63
44138;BME280;29800;55.942;37.314;2022-12-18T04:25:11;98950.09;;;-3.73;68.35
44138;BME280;29800;55.942;37.314;2022-12-18T04:27:46;98947.94;;;-3.77;68.54
44138;BME280;29800;55.942;37.314;2022-12-18T04:30:12;98965.53;;;-3.83;68.53
44138;BME280;29800;55.942;37.314;2022-12-18T04:32:38;98974.44;;;-3.91;68.85
44138;BME280;29800;55.942;37.314;2022-12-18T04:35:05;98974.63;;;-4.00;68.95
44138;BME280;29800;55.942;37.314;2022-12-18T04:37:37;98991.75;;;-4.10;69.82
44138;BME280;29800;55.942;37.314;2022-12-18T04:40:05;99002.13;;;-4.15;69.65
44138;BME280;29800;55.942;37.314;2022-12-18T04:42:40;98990.59;;;-4.15;69.57
44138;BME280;29800;55.942;37.314;2022-12-18T04:45:07;98989.59;;;-4.14;69.56
44138;BME280;29800;55.942;37.314;2022-12-18T04:47:33;99003.94;;;-4.15;69.72
44138;BME280;29800;55.942;37.314;2022-12-18T04:49:59;99003.94;;;-4.15;69.24
44138;BME280;29800;55.942;37.314;2022-12-18T04:52:26;99000.94;;;-4.12;69.84
44138;BME280;29800;55.942;37.314;2022-12-18T04:54:52;99001.34;;;-3.92;69.70
44138;BME280;29800;55.942;37.314;2022-12-18T04:57:18;99002.50;;;-3.86;68.90
44138;BME280;29800;55.942;37.314;2022-12-18T04:59:44;98995.66;;;-3.89;68.48
44138;BME280;29800;55.942;37.314;2022-12-18T05:02:10;99002.38;;;-3.93;69.38
44138;BME280;29800;55.942;37.314;2022-12-18T05:04:37;98998.19;;;-3.96;68.54
44138;BME280;29800;55.942;37.314;2022-12-18T05:07:03;98986.78;;;-3.90;68.71
44138;BME280;29800;55.942;37.314;2022-12-18T05:09:29;98985.75;;;-3.80;68.25
44138;BME280;29800;55.942;37.314;2022-12-18T05:11:55;98993.44;;;-3.85;68.40
44138;BME280;29800;55.942;37.314;2022-12-18T05:14:21;98993.91;;;-3.74;67.78
44138;BME280;29800;55.942;37.314;2022-12-18T05:16:47;99002.09;;;-3.75;68.36
44138;BME280;29800;55.942;37.314;2022-12-18T05:19:13;99008.44;;;-3.76;68.48
44138;BME280;29800;55.942;37.314;2022-12-18T05:21:38;99008.16;;;-3.81;67.79
44138;BME280;29800;55.942;37.314;2022-12-18T05:24:05;99008.38;;;-3.91;68.43
44138;BME280;29800;55.942;37.314;2022-12-18T05:26:31;99011.25;;;-4.01;68.56
44138;BME280;29800;55.942;37.314;2022-12-18T05:28:57;99011.06;;;-3.99;68.74
44138;BME280;29800;55.942;37.314;2022-12-18T05:31:23;99017.91;;;-3.97;68.87
44138;BME280;29800;55.942;37.314;2022-12-18T05:33:49;99020.41;;;-3.95;69.91
44138;BME280;29800;55.942;37.314;2022-12-18T05:36:15;99035.63;;;-3.96;69.18
44138;BME280;29800;55.942;37.314;2022-12-18T05:38:41;99035.47;;;-4.02;68.54
44138;BME280;29800;55.942;37.314;2022-12-18T05:41:08;99039.69;;;-4.08;68.17
44138;BME280;29800;55.942;37.314;2022-12-18T05:43:36;99047.34;;;-4.05;68.58
44138;BME280;29800;55.942;37.314;2022-12-18T05:46:07;99051.53;;;-4.02;68.14
44138;BME280;29800;55.942;37.314;2022-12-18T05:48:34;99053.56;;;-4.13;67.63
44138;BME280;29800;55.942;37.314;2022-12-18T05:51:08;99066.47;;;-3.77;67.17
44138;BME280;29800;55.942;37.314;2022-12-18T05:53:35;99060.44;;;-3.79;67.87
44138;BME280;29800;55.942;37.314;2022-12-18T05:56:04;99064.03;;;-3.95;67.06
44138;BME280;29800;55.942;37.314;2022-12-18T05:58:31;99072.72;;;-3.93;67.07
44138;BME280;29800;55.942;37.314;2022-12-18T06:01:05;99076.53;;;-3.87;67.44
44138;BME280;29800;55.942;37.314;2022-12-18T06:03:31;99078.19;;;-3.86;66.92
44138;BME280;29800;55.942;37.314;2022-12-18T06:05:57;99079.41;;;-3.89;67.13
44138;BME280;29800;55.942;37.314;2022-12-18T06:08:23;99081.03;;;-3.88;67.01
44138;BME280;29800;55.942;37.314;2022-12-18T06:10:50;99088.59;;;-3.91;67.23
44138;BME280;29800;55.942;37.314;2022-12-18T06:13:19;99086.53;;;-3.81;67.78
44138;BME280;29800;55.942;37.314;2022-12-18T06:15:45;99090.94;;;-3.57;69.24
44138;BME280;29800;55.942;37.314;2022-12-18T06:18:12;99100.28;;;-3.53;67.46
44138;BME280;29800;55.942;37.314;2022-12-18T06:20:38;99099.00;;;-3.65;67.54
44138;BME280;29800;55.942;37.314;2022-12-18T06:23:06;99102.72;;;-3.74;68.22
44138;BME280;29800;55.942;37.314;2022-12-18T06:25:32;99103.44;;;-3.80;67.45
44138;BME280;29800;55.942;37.314;2022-12-18T06:27:58;99114.41;;;-3.67;67.95
44138;BME280;29800;55.942;37.314;2022-12-18T06:30:25;99117.34;;;-3.54;67.50
44138;BME280;29800;55.942;37.314;2022-12-18T06:32:51;99123.41;;;-3.60;67.49
44138;BME280;29800;55.942;37.314;2022-12-18T06:35:17;99129.22;;;-3.56;67.54
44138;BME280;29800;55.942;37.314;2022-12-18T06:37:43;99135.84;;;-3.75;67.21
44138;BME280;29800;55.942;37.314;2022-12-18T06:40:09;99128.84;;;-3.84;67.39
44138;BME280;29800;55.942;37.314;2022-12-18T06:42:35;99141.34;;;-3.77;67.40
44138;BME280;29800;55.942;37.314;2022-12-18T06:45:01;99148.53;;;-3.77;67.22
44138;BME280;29800;55.942;37.314;2022-12-18T06:47:30;99151.34;;;-3.71;68.92
44138;BME280;29800;55.942;37.314;2022-12-18T06:49:56;99154.56;;;-3.75;67.71
44138;BME280;29800;55.942;37.314;2022-12-18T06:52:22;99158.53;;;-3.71;67.15
44138;BME280;29800;55.942;37.314;2022-12-18T06:54:48;99171.25;;;-3.73;67.30
44138;BME280;29800;55.942;37.314;2022-12-18T06:57:14;99173.78;;;-3.80;67.76
44138;BME280;29800;55.942;37.314;2022-12-18T06:59:40;99171.28;;;-3.81;67.78
44138;BME280;29800;55.942;37.314;2022-12-18T07:02:06;99178.31;;;-3.80;67.54
44138;BME280;29800;55.942;37.314;2022-12-18T07:04:32;99182.81;;;-3.81;67.25
44138;BME280;29800;55.942;37.314;2022-12-18T07:06:58;99190.34;;;-3.76;67.38
44138;BME280;29800;55.942;37.314;2022-12-18T07:09:24;99192.00;;;-3.67;67.09
44138;BME280;29800;55.942;37.314;2022-12-18T07:11:50;99188.28;;;-3.66;66.90
44138;BME280;29800;55.942;37.314;2022-12-18T07:14:16;99190.28;;;-3.60;67.36
44138;BME280;29800;55.942;37.314;2022-12-18T07:16:42;99188.53;;;-3.44;67.56
44138;BME280;29800;55.942;37.314;2022-12-18T07:19:09;99186.72;;;-3.44;66.94
44138;BME280;29800;55.942;37.314;2022-12-18T07:21:35;99191.09;;;-3.51;66.52
44138;BME280;29800;55.942;37.314;2022-12-18T07:24:01;99191.63;;;-3.56;67.06
44138;BME280;29800;55.942;37.314;2022-12-18T07:26:27;99195.72;;;-3.37;68.28
44138;BME280;29800;55.942;37.314;2022-12-18T07:28:56;99209.91;;;-3.28;66.93
44138;BME280;29800;55.942;37.314;2022-12-18T07:31:24;99219.47;;;-3.34;66.70
44138;BME280;29800;55.942;37.314;2022-12-18T07:33:51;99228.66;;;-3.36;66.72
44138;BME280;29800;55.942;37.314;2022-12-18T07:36:17;99230.69;;;-3.38;66.37
44138;BME280;29800;55.942;37.314;2022-12-18T07:38:46;99249.25;;;-3.37;66.64
44138;BME280;29800;55.942;37.314;2022-12-18T07:41:13;99242.41;;;-3.39;66.43
44138;BME280;29800;55.942;37.314;2022-12-18T07:43:40;99250.06;;;-3.36;66.54
44138;BME280;29800;55.942;37.314;2022-12-18T07:46:07;99254.75;;;-3.30;66.05
44138;BME280;29800;55.942;37.314;2022-12-18T07:48:34;99254.75;;;-3.30;66.21
44138;BME280;29800;55.942;37.314;2022-12-18T07:51:02;99249.03;;;-3.27;66.51
44138;BME280;29800;55.942;37.314;2022-12-18T07:53:28;99247.03;;;-3.25;66.27
44138;BME280;29800;55.942;37.314;2022-12-18T07:56:01;99242.19;;;-3.21;66.52
44138;BME280;29800;55.942;37.314;2022-12-18T07:58:29;99249.38;;;-3.22;66.42
44138;BME280;29800;55.942;37.314;2022-12-18T08:01:08;99245.50;;;-3.19;66.73
44138;BME280;29800;55.942;37.314;2022-12-18T08:03:35;99245.34;;;-3.18;66.23
44138;BME280;29800;55.942;37.314;2022-12-18T08:06:02;99246.66;;;-3.14;66.29
44138;BME280;29800;55.942;37.314;2022-12-18T08:08:30;99236.25;;;-3.08;66.10
44138;BME280;29800;55.942;37.314;2022-12-18T08:10:57;99232.44;;;-3.14;66.36
44138;BME280;29800;55.942;37.314;2022-12-18T08:13:23;99236.97;;;-3.15;66.29
44138;BME280;29800;55.942;37.314;2022-12-18T08:16:02;99258.84;;;-3.03;66.42
44138;BME280;29800;55.942;37.314;2022-12-18T08:18:28;99257.19;;;-3.12;66.31
44138;BME280;29800;55.942;37.314;2022-12-18T08:20:55;99270.25;;;-3.17;66.56
44138;BME280;29800;55.942;37.314;2022-12-18T08:23:21;99269.09;;;-3.15;66.68
44138;BME280;29800;55.942;37.314;2022-12-18T08:25:47;99280.81;;;-3.16;66.87
44138;BME280;29800;55.942;37.314;2022-12-18T08:28:14;99285.34;;;-3.16;66.54
44138;BME280;29800;55.942;37.314;2022-12-18T08:30:42;99290.53;;;-3.15;66.74
44138;BME280;29800;55.942;37.314;2022-12-18T08:33:08;99307.75;;;-3.17;67.16
44138;BME280;29800;55.942;37.314;2022-12-18T08:35:35;99312.59;;;-3.12;67.22
44138;BME280;29800;55.942;37.314;2022-12-18T08:38:03;99319.44;;;-3.10;66.30
44138;BME280;29800;55.942;37.314;2022-12-18T08:40:29;99304.56;;;-3.12;66.89
44138;BME280;29800;55.942;37.314;2022-12-18T08:42:55;99308.72;;;-3.10;66.65
44138;BME280;29800;55.942;37.314;2022-12-18T08:45:40;99313.72;;;-3.07;66.53
44138;BME280;29800;55.942;37.314;2022-12-18T08:48:06;99317.59;;;-3.01;66.68
44138;BME280;29800;55.942;37.314;2022-12-18T08:50:32;99315.56;;;-2.99;66.55
44138;BME280;29800;55.942;37.314;2022-12-18T08:52:58;99324.41;;;-2.99;66.67
44138;BME280;29800;55.942;37.314;2022-12-18T08:55:24;99325.31;;;-3.06;67.25
44138;BME280;29800;55.942;37.314;2022-12-18T08:57:50;99328.16;;;-3.08;67.08
44138;BME280;29800;55.942;37.314;2022-12-18T09:00:17;99317.72;;;-2.94;66.76
44138;BME280;29800;55.942;37.314;2022-12-18T09:02:43;99321.22;;;-2.94;66.90
44138;BME280;29800;55.942;37.314;2022-12-18T09:05:09;99330.13;;;-2.93;66.91
44138;BME280;29800;55.942;37.314;2022-12-18T09:07:35;99334.28;;;-2.91;66.82
44138;BME280;29800;55.942;37.314;2022-12-18T09:10:01;99334.59;;;-2.86;66.60
44138;BME280;29800;55.942;37.314;2022-12-18T09:12:29;99340.47;;;-2.90;66.50
44138;BME280;29800;55.942;37.314;2022-12-18T09:14:55;99339.63;;;-2.91;66.57
44138;BME280;29800;55.942;37.314;2022-12-18T09:17:22;99348.19;;;-2.96;67.15
44138;BME280;29800;55.942;37.314;2022-12-18T09:19:48;99352.38;;;-2.93;68.70
44138;BME280;29800;55.942;37.314;2022-12-18T09:22:15;99349.06;;;-3.03;67.45
44138;BME280;29800;55.942;37.314;2022-12-18T09:24:41;99351.75;;;-3.03;67.55
44138;BME280;29800;55.942;37.314;2022-12-18T09:27:07;99357.56;;;-2.91;67.80
44138;BME280;29800;55.942;37.314;2022-12-18T09:29:33;99370.09;;;-2.92;66.97
44138;BME280;29800;55.942;37.314;2022-12-18T09:31:59;99362.06;;;-2.92;66.51
44138;BME280;29800;55.942;37.314;2022-12-18T09:34:25;99369.44;;;-2.94;66.63
44138;BME280;29800;55.942;37.314;2022-12-18T09:36:51;99378.31;;;-2.93;66.87
44138;BME280;29800;55.942;37.314;2022-12-18T09:39:17;99380.09;;;-2.78;68.48
44138;BME280;29800;55.942;37.314;2022-12-18T09:49:26;99394.88;;;-2.90;66.63
44138;BME280;29800;55.942;37.314;2022-12-18T09:52:44;99400.41;;;-2.91;66.65
44138;BME280;29800;55.942;37.314;2022-12-18T09:54:46;99402.75;;;-2.88;66.68
44138;BME280;29800;55.942;37.314;2022-12-18T09:57:19;99406.25;;;-2.88;66.93
44138;BME280;29800;55.942;37.314;2022-12-18T09:59:51;99401.38;;;-2.76;67.48
44138;BME280;29800;55.942;37.314;2022-12-18T10:02:21;99407.91;;;-2.79;66.24
44138;BME280;29800;55.942;37.314;2022-12-18T10:05:05;99417.16;;;-2.89;66.66
44138;BME280;29800;55.942;37.314;2022-12-18T10:07:40;99416.66;;;-3.01;66.97
44138;BME280;29800;55.942;37.314;2022-12-18T10:10:21;99415.13;;;-2.87;66.69
44138;BME280;29800;55.942;37.314;2022-12-18T10:13:02;99423.66;;;-2.92;67.08
44138;BME280;29800;55.942;37.314;2022-12-18T10:16:08;99437.75;;;-2.98;66.85
44138;BME280;29800;55.942;37.314;2022-12-18T10:19:24;99438.94;;;-3.09;66.93
44138;BME280;29800;55.942;37.314;2022-12-18T10:21:34;99439.59;;;-2.99;66.76
44138;BME280;29800;55.942;37.314;2022-12-18T10:26:49;99440.28;;;-3.05;67.21
44138;BME280;29800;55.942;37.314;2022-12-18T10:29:17;99445.47;;;-3.11;67.05
44138;BME280;29800;55.942;37.314;2022-12-18T10:31:43;99449.31;;;-3.22;67.66
44138;BME280;29800;55.942;37.314;2022-12-18T10:34:12;99451.50;;;-3.18;67.96
44138;BME280;29800;55.942;37.314;2022-12-18T10:36:42;99448.50;;;-3.23;67.68
44138;BME280;29800;55.942;37.314;2022-12-18T10:39:21;99444.28;;;-3.17;67.74
44138;BME280;29800;55.942;37.314;2022-12-18T10:41:51;99453.50;;;-2.95;68.64
44138;BME280;29800;55.942;37.314;2022-12-18T10:44:20;99457.16;;;-2.88;67.36
44138;BME280;29800;55.942;37.314;2022-12-18T10:46:49;99457.34;;;-2.98;67.31
44138;BME280;29800;55.942;37.314;2022-12-18T10:49:27;99461.53;;;-2.95;67.26
44138;BME280;29800;55.942;37.314;2022-12-18T10:54:38;99460.03;;;-3.06;67.39
44138;BME280;29800;55.942;37.314;2022-12-18T10:57:17;99469.56;;;-3.03;67.89
44138;BME280;29800;55.942;37.314;2022-12-18T10:59:53;99473.56;;;-3.07;67.51
44138;BME280;29800;55.942;37.314;2022-12-18T11:02:33;99478.09;;;-3.08;67.82
44138;BME280;29800;55.942;37.314;2022-12-18T11:05:00;99475.94;;;-3.12;67.50
44138;BME280;29800;55.942;37.314;2022-12-18T11:07:48;99483.63;;;-3.01;67.53
44138;BME280;29800;55.942;37.314;2022-12-18T11:10:20;99474.94;;;-3.11;67.41
44138;BME280;29800;55.942;37.314;2022-12-18T11:12:47;99482.78;;;-3.10;67.16
44138;BME280;29800;55.942;37.314;2022-12-18T11:15:23;99486.47;;;-3.03;67.54
44138;BME280;29800;55.942;37.314;2022-12-18T11:17:52;99490.63;;;-3.08;67.45
44138;BME280;29800;55.942;37.314;2022-12-18T11:22:56;99497.69;;;-3.16;67.53
44138;BME280;29800;55.942;37.314;2022-12-18T11:25:23;99495.66;;;-3.14;67.73
44138;BME280;29800;55.942;37.314;2022-12-18T11:27:58;99512.06;;;-3.17;67.09
44138;BME280;29800;55.942;37.314;2022-12-18T11:30:33;99516.25;;;-3.22;67.45
44138;BME280;29800;55.942;37.314;2022-12-18T11:33:08;99514.41;;;-3.14;68.52
44138;BME280;29800;55.942;37.314;2022-12-18T11:35:44;99506.88;;;-3.18;67.61
44138;BME280;29800;55.942;37.314;2022-12-18T11:41:05;99520.94;;;-3.08;67.43
44138;BME280;29800;55.942;37.314;2022-12-18T11:43:45;99524.94;;;-3.12;67.14
44138;BME280;29800;55.942;37.314;2022-12-18T11:48:58;99526.81;;;-3.21;67.49
44138;BME280;29800;55.942;37.314;2022-12-18T11:51:56;99537.84;;;-3.24;67.49
44138;BME280;29800;55.942;37.314;2022-12-18T11:54:24;99544.16;;;-3.33;67.34
44138;BME280;29800;55.942;37.314;2022-12-18T11:57:06;99546.19;;;-3.35;68.40
44138;BME280;29800;55.942;37.314;2022-12-18T12:04:46;99555.22;;;-3.36;67.70
44138;BME280;29800;55.942;37.314;2022-12-18T12:12:59;99582.50;;;-3.33;67.78
44138;BME280;29800;55.942;37.314;2022-12-18T12:15:44;99580.66;;;-3.24;68.03
44138;BME280;29800;55.942;37.314;2022-12-18T12:26:39;99603.25;;;-3.18;67.57
44138;BME280;29800;55.942;37.314;2022-12-18T12:32:07;99608.28;;;-3.23;67.53
44138;BME280;29800;55.942;37.314;2022-12-18T12:37:55;99624.19;;;-3.22;67.59
44138;BME280;29800;55.942;37.314;2022-12-18T12:40:28;99620.50;;;-3.29;68.45
44138;BME280;29800;55.942;37.314;2022-12-18T12:42:59;99628.88;;;-3.24;68.81
44138;BME280;29800;55.942;37.314;2022-12-18T12:45:47;99640.47;;;-2.90;68.48
44138;BME280;29800;55.942;37.314;2022-12-18T12:48:20;99640.31;;;-2.81;68.20
44138;BME280;29800;55.942;37.314;2022-12-18T12:50:50;99649.03;;;-2.87;67.71
44138;BME280;29800;55.942;37.314;2022-12-18T12:53:27;99653.69;;;-2.89;68.12
44138;BME280;29800;55.942;37.314;2022-12-18T12:55:55;99662.75;;;-2.90;68.14
44138;BME280;29800;55.942;37.314;2022-12-18T12:59:00;99661.75;;;-2.81;68.02
44138;BME280;29800;55.942;37.314;2022-12-18T13:01:52;99672.28;;;-2.87;67.84
44138;BME280;29800;55.942;37.314;2022-12-18T13:04:49;99677.81;;;-2.81;68.09
44138;BME280;29800;55.942;37.314;2022-12-18T13:07:41;99694.56;;;-2.95;67.82
44138;BME280;29800;55.942;37.314;2022-12-18T13:13:07;99709.13;;;-2.89;69.19
44138;BME280;29800;55.942;37.314;2022-12-18T13:15:48;99711.78;;;-2.98;67.71
44138;BME280;29800;55.942;37.314;2022-12-18T13:20:48;99710.19;;;-3.17;67.55
44138;BME280;29800;55.942;37.314;2022-12-18T13:25:51;99724.81;;;-3.11;67.11
44138;BME280;29800;55.942;37.314;2022-12-18T13:28:49;99731.97;;;-3.20;67.18
44138;BME280;29800;55.942;37.314;2022-12-18T13:31:10;99741.94;;;-3.30;67.39
44138;BME280;29800;55.942;37.314;2022-12-18T13:33:37;99746.59;;;-3.40;67.54
44138;BME280;29800;55.942;37.314;2022-12-18T13:38:43;99761.94;;;-3.51;67.56
44138;BME280;29800;55.942;37.314;2022-12-18T13:41:26;99772.63;;;-3.51;67.44
44138;BME280;29800;55.942;37.314;2022-12-18T13:43:54;99780.66;;;-3.51;68.00
44138;BME280;29800;55.942;37.314;2022-12-18T13:46:29;99778.56;;;-3.39;67.47
44138;BME280;29800;55.942;37.314;2022-12-18T13:49:24;99787.78;;;-3.33;67.50
44138;BME280;29800;55.942;37.314;2022-12-18T13:51:54;99789.22;;;-3.47;66.87
44138;BME280;29800;55.942;37.314;2022-12-18T13:54:39;99788.75;;;-3.42;67.52
44138;BME280;29800;55.942;37.314;2022-12-18T13:59:50;99804.66;;;-3.67;67.08
44138;BME280;29800;55.942;37.314;2022-12-18T14:02:21;99813.34;;;-3.65;67.45
44138;BME280;29800;55.942;37.314;2022-12-18T14:04:49;99811.13;;;-3.70;67.32
44138;BME280;29800;55.942;37.314;2022-12-18T14:07:26;99819.63;;;-3.74;67.53
44138;BME280;29800;55.942;37.314;2022-12-18T14:10:03;99820.47;;;-3.74;67.85
44138;BME280;29800;55.942;37.314;2022-12-18T14:12:31;99831.19;;;-3.74;67.30
44138;BME280;29800;55.942;37.314;2022-12-18T14:17:53;99847.53;;;-3.77;66.79
44138;BME280;29800;55.942;37.314;2022-12-18T14:20:20;99849.13;;;-3.84;67.14
44138;BME280;29800;55.942;37.314;2022-12-18T14:22:47;99861.06;;;-3.78;67.00
44138;BME280;29800;55.942;37.314;2022-12-18T14:25:21;99865.97;;;-3.74;66.78
44138;BME280;29800;55.942;37.314;2022-12-18T14:30:38;99865.47;;;-3.69;67.00
44138;BME280;29800;55.942;37.314;2022-12-18T14:35:40;99880.47;;;-3.76;67.01